sensor_id;sensor_type;location;lat;lon;timestamp;temperature;humidity
34646;DHT22;20857;47.808;12.482;2024-02-16T00:00:09;3.60;99.90
34646;DHT22;20857;47.808;12.482;2024-02-16T00:02:40;3.70;99.90
34646;DHT22;20857;47.808;12.482;2024-02-16T00:05:07;3.90;99.90
34646;DHT22;20857;47.808;12.482;2024-02-16T00:07:34;3.80;99.90
34646;DHT22;20857;47.808;12.482;2024-02-16T00:10:00;3.90;99.90
34646;DHT22;20857;47.808;12.482;2024-02-16T00:12:25;3.90;99.90
34646;DHT22;20857;47.808;12.482;2024-02-16T00:14:51;3.90;99.90
34646;DHT22;20857;47.808;12.482;2024-02-16T00:17:16;3.80;99.90
34646;DHT22;20857;47.808;12.482;2024-02-16T00:19:42;3.80;99.90
34646;DHT22;20857;47.808;12.482;2024-02-16T00:22:08;3.80;99.90
34646;DHT22;20857;47.808;12.482;2024-02-16T00:24:34;3.70;99.90
34646;DHT22;20857;47.808;12.482;2024-02-16T00:27:02;3.80;99.90
34646;DHT22;20857;47.808;12.482;2024-02-16T00:29:31;4.30;99.90
34646;DHT22;20857;47.808;12.482;2024-02-16T00:31:57;4.40;99.90
34646;DHT22;20857;47.808;12.482;2024-02-16T00:34:24;4.70;99.90
34646;DHT22;20857;47.808;12.482;2024-02-16T00:36:50;4.90;99.90
34646;DHT22;20857;47.808;12.482;2024-02-16T00:39:16;4.80;99.90
34646;DHT22;20857;47.808;12.482;2024-02-16T00:41:41;4.90;99.90
34646;DHT22;20857;47.808;12.482;2024-02-16T00:44:10;5.00;99.90
34646;DHT22;20857;47.808;12.482;2024-02-16T00:46:36;5.00;99.90
34646;DHT22;20857;47.808;12.482;2024-02-16T00:49:01;5.10;99.90
34646;DHT22;20857;47.808;12.482;2024-02-16T00:51:27;5.10;99.90
34646;DHT22;20857;47.808;12.482;2024-02-16T00:53:53;5.00;99.90
34646;DHT22;20857;47.808;12.482;2024-02-16T00:56:18;4.90;99.90
34646;DHT22;20857;47.808;12.482;2024-02-16T00:58:44;4.50;99.90
34646;DHT22;20857;47.808;12.482;2024-02-16T01:01:09;4.30;99.90
34646;DHT22;20857;47.808;12.482;2024-02-16T01:03:38;4.30;99.90
34646;DHT22;20857;47.808;12.482;2024-02-16T01:06:05;4.40;99.90
34646;DHT22;20857;47.808;12.482;2024-02-16T01:08:31;4.80;99.90
34646;DHT22;20857;47.808;12.482;2024-02-16T01:10:57;5.30;99.90
34646;DHT22;20857;47.808;12.482;2024-02-16T01:13:22;5.40;99.90
34646;DHT22;20857;47.808;12.482;2024-02-16T01:15:48;5.40;99.90
34646;DHT22;20857;47.808;12.482;2024-02-16T01:18:14;5.40;99.90
34646;DHT22;20857;47.808;12.482;2024-02-16T01:20:39;5.40;99.90
34646;DHT22;20857;47.808;12.482;2024-02-16T01:23:05;4.90;99.90
34646;DHT22;20857;47.808;12.482;2024-02-16T01:25:31;4.50;99.90
34646;DHT22;20857;47.808;12.482;2024-02-16T01:27:57;4.50;99.90
34646;DHT22;20857;47.808;12.482;2024-02-16T01:30:24;4.50;99.90
34646;DHT22;20857;47.808;12.482;2024-02-16T01:32:49;4.50;99.90
34646;DHT22;20857;47.808;12.482;2024-02-16T01:35:16;4.50;99.90
34646;DHT22;20857;47.808;12.482;2024-02-16T01:37:42;4.70;99.90
34646;DHT22;20857;47.808;12.482;2024-02-16T01:40:09;4.40;99.90
34646;DHT22;20857;47.808;12.482;2024-02-16T01:42:40;4.20;99.90
34646;DHT22;20857;47.808;12.482;2024-02-16T01:45:07;4.10;99.90
34646;DHT22;20857;47.808;12.482;2024-02-16T01:47:35;4.00;99.90
34646;DHT22;20857;47.808;12.482;2024-02-16T01:50:02;4.10;99.90
34646;DHT22;20857;47.808;12.482;2024-02-16T01:52:28;4.10;99.90
34646;DHT22;20857;47.808;12.482;2024-02-16T01:54:54;4.00;99.90
34646;DHT22;20857;47.808;12.482;2024-02-16T01:57:20;3.90;99.90
34646;DHT22;20857;47.808;12.482;2024-02-16T01:59:45;3.80;99.90
34646;DHT22;20857;47.808;12.482;2024-02-16T02:02:11;3.70;99.90
34646;DHT22;20857;47.808;12.482;2024-02-16T02:04:37;3.70;99.90
34646;DHT22;20857;47.808;12.482;2024-02-16T02:07:14;3.70;99.90
34646;DHT22;20857;47.808;12.482;2024-02-16T02:09:40;3.70;99.90
34646;DHT22;20857;47.808;12.482;2024-02-16T02:12:07;3.60;99.90
34646;DHT22;20857;47.808;12.482;2024-02-16T02:14:33;3.40;99.90
34646;DHT22;20857;47.808;12.482;2024-02-16T02:16:58;3.30;99.90
34646;DHT22;20857;47.808;12.482;2024-02-16T02:19:24;3.10;99.90
34646;DHT22;20857;47.808;12.482;2024-02-16T02:21:50;3.00;99.90
34646;DHT22;20857;47.808;12.482;2024-02-16T02:24:16;2.90;99.90
34646;DHT22;20857;47.808;12.482;2024-02-16T02:26:41;2.80;99.90
34646;DHT22;20857;47.808;12.482;2024-02-16T02:29:07;2.80;99.90
34646;DHT22;20857;47.808;12.482;2024-02-16T02:31:33;3.00;99.90
34646;DHT22;20857;47.808;12.482;2024-02-16T02:33:58;3.00;99.90
34646;DHT22;20857;47.808;12.482;2024-02-16T02:36:24;3.20;99.90
34646;DHT22;20857;47.808;12.482;2024-02-16T02:38:50;3.40;99.90
34646;DHT22;20857;47.808;12.482;2024-02-16T02:41:16;3.60;99.90
34646;DHT22;20857;47.808;12.482;2024-02-16T02:43:44;3.50;99.90
34646;DHT22;20857;47.808;12.482;2024-02-16T02:46:17;3.10;99.90
34646;DHT22;20857;47.808;12.482;2024-02-16T02:48:44;3.00;99.90
34646;DHT22;20857;47.808;12.482;2024-02-16T02:51:10;3.00;99.90
34646;DHT22;20857;47.808;12.482;2024-02-16T02:53:35;2.90;99.90
34646;DHT22;20857;47.808;12.482;2024-02-16T02:56:02;2.70;99.90
34646;DHT22;20857;47.808;12.482;2024-02-16T02:58:28;2.70;99.90
34646;DHT22;20857;47.808;12.482;2024-02-16T03:00:54;2.70;99.90
34646;DHT22;20857;47.808;12.482;2024-02-16T03:03:20;2.80;99.90
34646;DHT22;20857;47.808;12.482;2024-02-16T03:05:46;2.90;99.90
34646;DHT22;20857;47.808;12.482;2024-02-16T03:08:11;3.00;99.90
34646;DHT22;20857;47.808;12.482;2024-02-16T03:10:37;2.90;99.90
34646;DHT22;20857;47.808;12.482;2024-02-16T03:13:03;2.90;99.90
34646;DHT22;20857;47.808;12.482;2024-02-16T03:15:29;2.80;99.90
34646;DHT22;20857;47.808;12.482;2024-02-16T03:17:55;2.70;99.90
34646;DHT22;20857;47.808;12.482;2024-02-16T03:20:21;2.60;99.90
34646;DHT22;20857;47.808;12.482;2024-02-16T03:22:47;2.60;99.90
34646;DHT22;20857;47.808;12.482;2024-02-16T03:25:13;2.50;99.90
34646;DHT22;20857;47.808;12.482;2024-02-16T03:27:40;2.60;99.90
34646;DHT22;20857;47.808;12.482;2024-02-16T03:30:07;2.50;99.90
34646;DHT22;20857;47.808;12.482;2024-02-16T03:32:33;2.40;99.90
34646;DHT22;20857;47.808;12.482;2024-02-16T03:34:59;2.30;99.90
34646;DHT22;20857;47.808;12.482;2024-02-16T03:37:25;2.30;99.90
34646;DHT22;20857;47.808;12.482;2024-02-16T03:39:51;2.30;99.90
34646;DHT22;20857;47.808;12.482;2024-02-16T03:42:16;2.30;99.90
34646;DHT22;20857;47.808;12.482;2024-02-16T03:44:45;2.40;99.90
34646;DHT22;20857;47.808;12.482;2024-02-16T03:47:11;2.40;99.90
34646;DHT22;20857;47.808;12.482;2024-02-16T03:49:38;2.50;99.90
34646;DHT22;20857;47.808;12.482;2024-02-16T03:52:04;2.60;99.90
34646;DHT22;20857;47.808;12.482;2024-02-16T03:54:29;2.70;99.90
34646;DHT22;20857;47.808;12.482;2024-02-16T03:56:56;2.80;99.90
34646;DHT22;20857;47.808;12.482;2024-02-16T03:59:23;3.00;99.90
34646;DHT22;20857;47.808;12.482;2024-02-16T04:01:49;3.00;99.90
34646;DHT22;20857;47.808;12.482;2024-02-16T04:04:15;2.90;99.90
34646;DHT22;20857;47.808;12.482;2024-02-16T04:06:41;2.80;99.90
34646;DHT22;20857;47.808;12.482;2024-02-16T04:09:06;2.80;99.90
34646;DHT22;20857;47.808;12.482;2024-02-16T04:11:32;2.80;99.90
34646;DHT22;20857;47.808;12.482;2024-02-16T04:13:58;2.90;99.90
34646;DHT22;20857;47.808;12.482;2024-02-16T04:16:24;3.00;99.90
34646;DHT22;20857;47.808;12.482;2024-02-16T04:18:53;3.20;99.90
34646;DHT22;20857;47.808;12.482;2024-02-16T04:21:19;3.00;99.90
34646;DHT22;20857;47.808;12.482;2024-02-16T04:23:46;2.90;99.90
34646;DHT22;20857;47.808;12.482;2024-02-16T04:26:12;2.70;99.90
34646;DHT22;20857;47.808;12.482;2024-02-16T04:28:37;2.60;99.90
34646;DHT22;20857;47.808;12.482;2024-02-16T04:31:03;2.70;99.90
34646;DHT22;20857;47.808;12.482;2024-02-16T04:33:29;2.50;99.90
34646;DHT22;20857;47.808;12.482;2024-02-16T04:35:54;2.50;99.90
34646;DHT22;20857;47.808;12.482;2024-02-16T04:38:20;3.00;99.90
34646;DHT22;20857;47.808;12.482;2024-02-16T04:40:45;2.50;99.90
34646;DHT22;20857;47.808;12.482;2024-02-16T04:43:11;2.50;99.90
34646;DHT22;20857;47.808;12.482;2024-02-16T04:45:37;2.70;99.90
34646;DHT22;20857;47.808;12.482;2024-02-16T04:48:04;2.90;99.90
34646;DHT22;20857;47.808;12.482;2024-02-16T04:50:31;3.10;99.90
34646;DHT22;20857;47.808;12.482;2024-02-16T04:52:57;3.00;99.90
34646;DHT22;20857;47.808;12.482;2024-02-16T04:55:23;2.90;99.90
34646;DHT22;20857;47.808;12.482;2024-02-16T04:57:48;2.80;99.90
34646;DHT22;20857;47.808;12.482;2024-02-16T05:00:14;2.70;99.90
34646;DHT22;20857;47.808;12.482;2024-02-16T05:02:40;2.60;99.90
34646;DHT22;20857;47.808;12.482;2024-02-16T05:05:06;2.90;99.90
34646;DHT22;20857;47.808;12.482;2024-02-16T05:07:33;2.50;99.90
34646;DHT22;20857;47.808;12.482;2024-02-16T05:09:58;2.60;99.90
34646;DHT22;20857;47.808;12.482;2024-02-16T05:12:24;2.50;99.90
34646;DHT22;20857;47.808;12.482;2024-02-16T05:14:51;2.50;99.90
34646;DHT22;20857;47.808;12.482;2024-02-16T05:17:18;2.30;99.90
34646;DHT22;20857;47.808;12.482;2024-02-16T05:19:43;2.10;99.90
34646;DHT22;20857;47.808;12.482;2024-02-16T05:22:09;2.00;99.90
34646;DHT22;20857;47.808;12.482;2024-02-16T05:24:35;1.90;99.90
34646;DHT22;20857;47.808;12.482;2024-02-16T05:27:01;1.90;99.90
34646;DHT22;20857;47.808;12.482;2024-02-16T05:29:27;1.90;99.90
34646;DHT22;20857;47.808;12.482;2024-02-16T05:31:53;2.00;99.90
34646;DHT22;20857;47.808;12.482;2024-02-16T05:34:18;2.10;99.90
34646;DHT22;20857;47.808;12.482;2024-02-16T05:36:44;2.30;99.90
34646;DHT22;20857;47.808;12.482;2024-02-16T05:39:10;2.70;99.90
34646;DHT22;20857;47.808;12.482;2024-02-16T05:41:46;3.10;99.90
34646;DHT22;20857;47.808;12.482;2024-02-16T05:44:12;3.20;99.90
34646;DHT22;20857;47.808;12.482;2024-02-16T05:46:38;3.40;99.90
34646;DHT22;20857;47.808;12.482;2024-02-16T05:49:06;3.50;99.90
34646;DHT22;20857;47.808;12.482;2024-02-16T05:51:35;3.40;99.90
34646;DHT22;20857;47.808;12.482;2024-02-16T05:54:02;3.50;99.90
34646;DHT22;20857;47.808;12.482;2024-02-16T05:56:27;3.10;99.90
34646;DHT22;20857;47.808;12.482;2024-02-16T05:58:53;3.10;99.90
34646;DHT22;20857;47.808;12.482;2024-02-16T06:01:19;2.70;99.90
34646;DHT22;20857;47.808;12.482;2024-02-16T06:03:45;2.80;99.90
34646;DHT22;20857;47.808;12.482;2024-02-16T06:06:10;3.20;99.90
34646;DHT22;20857;47.808;12.482;2024-02-16T06:08:36;3.30;99.90
34646;DHT22;20857;47.808;12.482;2024-02-16T06:11:02;3.50;99.90
34646;DHT22;20857;47.808;12.482;2024-02-16T06:13:28;2.90;99.90
34646;DHT22;20857;47.808;12.482;2024-02-16T06:15:54;2.70;99.90
34646;DHT22;20857;47.808;12.482;2024-02-16T06:18:20;2.50;99.90
34646;DHT22;20857;47.808;12.482;2024-02-16T06:20:46;2.50;99.90
34646;DHT22;20857;47.808;12.482;2024-02-16T06:23:12;2.40;99.90
34646;DHT22;20857;47.808;12.482;2024-02-16T06:25:37;2.40;99.90
34646;DHT22;20857;47.808;12.482;2024-02-16T06:28:03;2.30;99.90
34646;DHT22;20857;47.808;12.482;2024-02-16T06:30:30;2.30;99.90
34646;DHT22;20857;47.808;12.482;2024-02-16T06:32:55;2.30;99.90
34646;DHT22;20857;47.808;12.482;2024-02-16T06:35:21;2.40;99.90
34646;DHT22;20857;47.808;12.482;2024-02-16T06:37:47;2.30;99.90
34646;DHT22;20857;47.808;12.482;2024-02-16T06:40:15;2.30;99.90
34646;DHT22;20857;47.808;12.482;2024-02-16T06:42:42;2.20;99.90
34646;DHT22;20857;47.808;12.482;2024-02-16T06:45:08;2.30;99.90
34646;DHT22;20857;47.808;12.482;2024-02-16T06:47:34;2.20;99.90
34646;DHT22;20857;47.808;12.482;2024-02-16T06:49:59;2.10;99.90
34646;DHT22;20857;47.808;12.482;2024-02-16T06:52:25;2.10;99.90
34646;DHT22;20857;47.808;12.482;2024-02-16T06:54:51;2.20;99.90
34646;DHT22;20857;47.808;12.482;2024-02-16T06:57:17;2.20;99.90
34646;DHT22;20857;47.808;12.482;2024-02-16T06:59:43;2.30;99.90
34646;DHT22;20857;47.808;12.482;2024-02-16T07:02:08;2.40;99.90
34646;DHT22;20857;47.808;12.482;2024-02-16T07:04:36;2.70;99.90
34646;DHT22;20857;47.808;12.482;2024-02-16T07:07:01;2.70;99.90
34646;DHT22;20857;47.808;12.482;2024-02-16T07:09:27;2.80;99.90
34646;DHT22;20857;47.808;12.482;2024-02-16T07:11:53;3.00;99.90
34646;DHT22;20857;47.808;12.482;2024-02-16T07:14:18;3.10;99.90
34646;DHT22;20857;47.808;12.482;2024-02-16T07:16:44;3.20;99.90
34646;DHT22;20857;47.808;12.482;2024-02-16T07:19:09;3.40;99.90
34646;DHT22;20857;47.808;12.482;2024-02-16T07:21:35;3.50;99.90
34646;DHT22;20857;47.808;12.482;2024-02-16T07:24:01;3.60;99.90
34646;DHT22;20857;47.808;12.482;2024-02-16T07:26:27;3.70;99.90
34646;DHT22;20857;47.808;12.482;2024-02-16T07:28:53;4.00;99.90
34646;DHT22;20857;47.808;12.482;2024-02-16T07:31:18;4.10;99.90
34646;DHT22;20857;47.808;12.482;2024-02-16T07:33:44;4.40;99.90
34646;DHT22;20857;47.808;12.482;2024-02-16T07:36:09;4.60;99.90
34646;DHT22;20857;47.808;12.482;2024-02-16T07:38:35;4.70;99.90
34646;DHT22;20857;47.808;12.482;2024-02-16T07:41:01;4.60;99.90
34646;DHT22;20857;47.808;12.482;2024-02-16T07:43:27;4.70;99.90
34646;DHT22;20857;47.808;12.482;2024-02-16T07:45:53;4.70;99.90
34646;DHT22;20857;47.808;12.482;2024-02-16T07:48:20;5.10;99.90
34646;DHT22;20857;47.808;12.482;2024-02-16T07:50:47;5.20;99.90
34646;DHT22;20857;47.808;12.482;2024-02-16T07:53:12;5.40;99.90
34646;DHT22;20857;47.808;12.482;2024-02-16T07:55:38;5.40;99.90
34646;DHT22;20857;47.808;12.482;2024-02-16T07:58:04;5.50;99.90
34646;DHT22;20857;47.808;12.482;2024-02-16T08:00:29;5.30;99.90
34646;DHT22;20857;47.808;12.482;2024-02-16T08:02:55;5.40;99.90
34646;DHT22;20857;47.808;12.482;2024-02-16T08:05:21;5.70;99.90
34646;DHT22;20857;47.808;12.482;2024-02-16T08:07:47;5.80;99.90
34646;DHT22;20857;47.808;12.482;2024-02-16T08:10:13;5.90;99.90
34646;DHT22;20857;47.808;12.482;2024-02-16T08:12:39;6.30;99.90
34646;DHT22;20857;47.808;12.482;2024-02-16T08:15:06;6.20;99.90
34646;DHT22;20857;47.808;12.482;2024-02-16T08:17:36;6.30;99.90
34646;DHT22;20857;47.808;12.482;2024-02-16T08:20:02;6.40;99.90
34646;DHT22;20857;47.808;12.482;2024-02-16T08:22:28;6.60;99.90
34646;DHT22;20857;47.808;12.482;2024-02-16T08:24:54;6.80;99.90
34646;DHT22;20857;47.808;12.482;2024-02-16T08:27:20;7.00;99.90
34646;DHT22;20857;47.808;12.482;2024-02-16T08:29:45;7.20;99.90
34646;DHT22;20857;47.808;12.482;2024-02-16T08:32:11;7.20;99.90
34646;DHT22;20857;47.808;12.482;2024-02-16T08:34:37;7.10;99.90
34646;DHT22;20857;47.808;12.482;2024-02-16T08:37:04;7.10;99.90
34646;DHT22;20857;47.808;12.482;2024-02-16T08:39:30;7.10;99.90
34646;DHT22;20857;47.808;12.482;2024-02-16T08:41:56;7.00;99.90
34646;DHT22;20857;47.808;12.482;2024-02-16T08:44:22;7.30;99.90
34646;DHT22;20857;47.808;12.482;2024-02-16T08:46:48;7.40;99.90
34646;DHT22;20857;47.808;12.482;2024-02-16T08:49:15;8.00;99.90
34646;DHT22;20857;47.808;12.482;2024-02-16T08:51:41;7.80;99.90
34646;DHT22;20857;47.808;12.482;2024-02-16T08:54:06;7.80;99.90
34646;DHT22;20857;47.808;12.482;2024-02-16T08:56:32;7.90;99.90
34646;DHT22;20857;47.808;12.482;2024-02-16T08:59:03;7.90;99.90
34646;DHT22;20857;47.808;12.482;2024-02-16T09:01:37;8.00;99.90
34646;DHT22;20857;47.808;12.482;2024-02-16T09:04:03;8.00;99.90
34646;DHT22;20857;47.808;12.482;2024-02-16T09:06:29;8.10;99.90
34646;DHT22;20857;47.808;12.482;2024-02-16T09:08:55;8.10;99.90
34646;DHT22;20857;47.808;12.482;2024-02-16T09:11:21;8.30;99.90
34646;DHT22;20857;47.808;12.482;2024-02-16T09:13:47;8.30;99.90
34646;DHT22;20857;47.808;12.482;2024-02-16T09:16:13;8.50;99.90
34646;DHT22;20857;47.808;12.482;2024-02-16T09:18:38;8.70;99.90
34646;DHT22;20857;47.808;12.482;2024-02-16T09:21:04;8.80;99.90
34646;DHT22;20857;47.808;12.482;2024-02-16T09:23:31;8.90;99.90
34646;DHT22;20857;47.808;12.482;2024-02-16T09:25:57;9.20;99.90
34646;DHT22;20857;47.808;12.482;2024-02-16T09:28:24;9.10;99.90
34646;DHT22;20857;47.808;12.482;2024-02-16T09:30:50;9.40;99.90
34646;DHT22;20857;47.808;12.482;2024-02-16T09:33:15;9.40;99.90
34646;DHT22;20857;47.808;12.482;2024-02-16T09:35:41;9.50;99.90
34646;DHT22;20857;47.808;12.482;2024-02-16T09:38:07;9.70;99.90
34646;DHT22;20857;47.808;12.482;2024-02-16T09:40:35;9.90;99.90
34646;DHT22;20857;47.808;12.482;2024-02-16T09:43:01;10.00;99.90
34646;DHT22;20857;47.808;12.482;2024-02-16T09:45:28;10.20;99.90
34646;DHT22;20857;47.808;12.482;2024-02-16T09:47:55;10.30;99.90
34646;DHT22;20857;47.808;12.482;2024-02-16T09:50:21;10.50;99.90
34646;DHT22;20857;47.808;12.482;2024-02-16T09:52:50;10.80;99.90
34646;DHT22;20857;47.808;12.482;2024-02-16T09:55:17;10.90;99.90
34646;DHT22;20857;47.808;12.482;2024-02-16T09:57:43;11.00;99.90
34646;DHT22;20857;47.808;12.482;2024-02-16T10:00:09;11.20;99.90
34646;DHT22;20857;47.808;12.482;2024-02-16T10:02:48;11.20;99.90
34646;DHT22;20857;47.808;12.482;2024-02-16T10:05:21;11.40;99.90
34646;DHT22;20857;47.808;12.482;2024-02-16T10:07:47;11.50;99.90
34646;DHT22;20857;47.808;12.482;2024-02-16T10:10:26;11.70;99.90
34646;DHT22;20857;47.808;12.482;2024-02-16T10:13:04;11.80;99.90
34646;DHT22;20857;47.808;12.482;2024-02-16T10:15:34;11.90;99.90
34646;DHT22;20857;47.808;12.482;2024-02-16T10:18:03;12.10;99.90
34646;DHT22;20857;47.808;12.482;2024-02-16T10:20:30;12.30;99.90
34646;DHT22;20857;47.808;12.482;2024-02-16T10:23:06;12.60;99.90
34646;DHT22;20857;47.808;12.482;2024-02-16T10:25:33;12.60;99.90
34646;DHT22;20857;47.808;12.482;2024-02-16T10:28:03;12.70;99.90
34646;DHT22;20857;47.808;12.482;2024-02-16T10:30:30;12.90;99.90
34646;DHT22;20857;47.808;12.482;2024-02-16T10:32:59;13.10;99.90
34646;DHT22;20857;47.808;12.482;2024-02-16T10:35:25;13.20;99.90
34646;DHT22;20857;47.808;12.482;2024-02-16T10:37:52;13.50;99.90
34646;DHT22;20857;47.808;12.482;2024-02-16T10:40:19;13.60;99.90
34646;DHT22;20857;47.808;12.482;2024-02-16T10:42:49;13.70;99.90
34646;DHT22;20857;47.808;12.482;2024-02-16T10:45:17;13.80;99.90
34646;DHT22;20857;47.808;12.482;2024-02-16T10:47:43;13.80;99.90
34646;DHT22;20857;47.808;12.482;2024-02-16T10:50:08;14.00;99.90
34646;DHT22;20857;47.808;12.482;2024-02-16T10:52:36;14.20;99.90
34646;DHT22;20857;47.808;12.482;2024-02-16T10:55:04;14.40;99.90
34646;DHT22;20857;47.808;12.482;2024-02-16T10:57:31;14.50;99.90
34646;DHT22;20857;47.808;12.482;2024-02-16T10:59:58;14.60;99.90
34646;DHT22;20857;47.808;12.482;2024-02-16T11:02:24;14.70;99.90
34646;DHT22;20857;47.808;12.482;2024-02-16T11:04:51;14.90;99.60
34646;DHT22;20857;47.808;12.482;2024-02-16T11:07:18;15.00;98.60
34646;DHT22;20857;47.808;12.482;2024-02-16T11:09:46;15.20;99.00
34646;DHT22;20857;47.808;12.482;2024-02-16T11:12:12;15.40;99.40
34646;DHT22;20857;47.808;12.482;2024-02-16T11:14:43;15.60;98.70
34646;DHT22;20857;47.808;12.482;2024-02-16T11:17:20;15.90;96.90
34646;DHT22;20857;47.808;12.482;2024-02-16T11:19:47;16.00;96.80
34646;DHT22;20857;47.808;12.482;2024-02-16T11:22:17;16.20;97.60
34646;DHT22;20857;47.808;12.482;2024-02-16T11:24:45;16.50;96.70
34646;DHT22;20857;47.808;12.482;2024-02-16T11:27:13;16.50;95.80
34646;DHT22;20857;47.808;12.482;2024-02-16T11:29:41;16.60;95.70
34646;DHT22;20857;47.808;12.482;2024-02-16T11:32:07;16.80;95.40
34646;DHT22;20857;47.808;12.482;2024-02-16T11:34:34;17.10;96.50
34646;DHT22;20857;47.808;12.482;2024-02-16T11:37:01;17.20;94.80
34646;DHT22;20857;47.808;12.482;2024-02-16T11:39:27;17.10;95.00
34646;DHT22;20857;47.808;12.482;2024-02-16T11:42:08;17.00;94.40
34646;DHT22;20857;47.808;12.482;2024-02-16T11:44:36;17.10;95.20
34646;DHT22;20857;47.808;12.482;2024-02-16T11:47:02;17.00;95.60
34646;DHT22;20857;47.808;12.482;2024-02-16T11:49:29;17.00;94.90
34646;DHT22;20857;47.808;12.482;2024-02-16T11:51:56;16.90;94.50
34646;DHT22;20857;47.808;12.482;2024-02-16T11:54:21;16.80;95.20
34646;DHT22;20857;47.808;12.482;2024-02-16T11:56:48;16.50;95.00
34646;DHT22;20857;47.808;12.482;2024-02-16T11:59:17;16.40;97.00
34646;DHT22;20857;47.808;12.482;2024-02-16T12:01:53;16.20;96.80
34646;DHT22;20857;47.808;12.482;2024-02-16T12:04:26;16.20;97.50
34646;DHT22;20857;47.808;12.482;2024-02-16T12:06:56;16.20;98.60
34646;DHT22;20857;47.808;12.482;2024-02-16T12:09:22;16.30;98.00
34646;DHT22;20857;47.808;12.482;2024-02-16T12:11:49;16.30;98.00
34646;DHT22;20857;47.808;12.482;2024-02-16T12:14:16;16.40;98.10
34646;DHT22;20857;47.808;12.482;2024-02-16T12:16:46;16.50;97.50
34646;DHT22;20857;47.808;12.482;2024-02-16T12:19:12;16.50;96.70
34646;DHT22;20857;47.808;12.482;2024-02-16T12:21:38;16.50;96.50
34646;DHT22;20857;47.808;12.482;2024-02-16T12:24:04;16.50;96.10
34646;DHT22;20857;47.808;12.482;2024-02-16T12:26:30;16.50;96.20
34646;DHT22;20857;47.808;12.482;2024-02-16T12:28:55;16.40;96.20
34646;DHT22;20857;47.808;12.482;2024-02-16T12:31:21;16.30;96.10
34646;DHT22;20857;47.808;12.482;2024-02-16T12:33:47;16.30;96.10
34646;DHT22;20857;47.808;12.482;2024-02-16T12:36:13;16.20;96.10
34646;DHT22;20857;47.808;12.482;2024-02-16T12:38:40;16.30;96.30
34646;DHT22;20857;47.808;12.482;2024-02-16T12:41:06;16.30;95.50
34646;DHT22;20857;47.808;12.482;2024-02-16T12:43:32;16.40;95.40
34646;DHT22;20857;47.808;12.482;2024-02-16T12:45:57;16.40;95.00
34646;DHT22;20857;47.808;12.482;2024-02-16T12:48:27;16.40;96.50
34646;DHT22;20857;47.808;12.482;2024-02-16T12:50:52;16.50;96.00
34646;DHT22;20857;47.808;12.482;2024-02-16T12:53:18;16.50;95.40
34646;DHT22;20857;47.808;12.482;2024-02-16T12:55:45;16.60;95.30
34646;DHT22;20857;47.808;12.482;2024-02-16T12:58:11;16.50;95.30
34646;DHT22;20857;47.808;12.482;2024-02-16T13:00:38;16.50;94.30
34646;DHT22;20857;47.808;12.482;2024-02-16T13:03:03;16.50;94.40
34646;DHT22;20857;47.808;12.482;2024-02-16T13:05:29;16.50;95.80
34646;DHT22;20857;47.808;12.482;2024-02-16T13:08:00;16.60;94.90
34646;DHT22;20857;47.808;12.482;2024-02-16T13:10:26;16.70;94.50
34646;DHT22;20857;47.808;12.482;2024-02-16T13:12:51;16.80;95.20
34646;DHT22;20857;47.808;12.482;2024-02-16T13:15:17;16.80;94.30
34646;DHT22;20857;47.808;12.482;2024-02-16T13:17:42;16.90;94.80
34646;DHT22;20857;47.808;12.482;2024-02-16T13:20:08;17.00;94.90
34646;DHT22;20857;47.808;12.482;2024-02-16T13:22:37;16.90;94.70
34646;DHT22;20857;47.808;12.482;2024-02-16T13:25:04;16.60;95.60
34646;DHT22;20857;47.808;12.482;2024-02-16T13:27:30;16.50;96.30
34646;DHT22;20857;47.808;12.482;2024-02-16T13:29:55;16.30;96.50
34646;DHT22;20857;47.808;12.482;2024-02-16T13:32:21;16.20;96.90
34646;DHT22;20857;47.808;12.482;2024-02-16T13:34:47;16.10;97.00
34646;DHT22;20857;47.808;12.482;2024-02-16T13:37:13;16.00;97.10
34646;DHT22;20857;47.808;12.482;2024-02-16T13:39:39;16.00;96.80
34646;DHT22;20857;47.808;12.482;2024-02-16T13:42:04;16.30;97.40
34646;DHT22;20857;47.808;12.482;2024-02-16T13:44:30;16.40;96.60
34646;DHT22;20857;47.808;12.482;2024-02-16T13:46:56;16.50;96.80
34646;DHT22;20857;47.808;12.482;2024-02-16T13:49:22;16.60;96.50
34646;DHT22;20857;47.808;12.482;2024-02-16T13:51:48;16.70;95.90
34646;DHT22;20857;47.808;12.482;2024-02-16T13:54:14;16.80;95.80
34646;DHT22;20857;47.808;12.482;2024-02-16T13:56:39;16.70;96.50
34646;DHT22;20857;47.808;12.482;2024-02-16T13:59:05;16.50;96.30
34646;DHT22;20857;47.808;12.482;2024-02-16T14:01:33;16.30;96.30
34646;DHT22;20857;47.808;12.482;2024-02-16T14:03:59;16.20;96.30
34646;DHT22;20857;47.808;12.482;2024-02-16T14:06:25;16.20;96.60
34646;DHT22;20857;47.808;12.482;2024-02-16T14:08:50;16.10;96.60
34646;DHT22;20857;47.808;12.482;2024-02-16T14:11:18;16.20;97.00
34646;DHT22;20857;47.808;12.482;2024-02-16T14:13:44;16.30;97.30
34646;DHT22;20857;47.808;12.482;2024-02-16T14:16:09;16.40;96.60
34646;DHT22;20857;47.808;12.482;2024-02-16T14:18:36;16.50;96.50
34646;DHT22;20857;47.808;12.482;2024-02-16T14:21:02;16.60;96.30
34646;DHT22;20857;47.808;12.482;2024-02-16T14:23:29;16.70;96.40
34646;DHT22;20857;47.808;12.482;2024-02-16T14:25:55;16.70;96.80
34646;DHT22;20857;47.808;12.482;2024-02-16T14:28:21;16.70;96.70
34646;DHT22;20857;47.808;12.482;2024-02-16T14:30:46;16.90;95.90
34646;DHT22;20857;47.808;12.482;2024-02-16T14:33:12;17.40;95.00
34646;DHT22;20857;47.808;12.482;2024-02-16T14:35:38;17.90;95.00
34646;DHT22;20857;47.808;12.482;2024-02-16T14:38:06;17.90;95.70
34646;DHT22;20857;47.808;12.482;2024-02-16T14:40:32;17.80;95.80
34646;DHT22;20857;47.808;12.482;2024-02-16T14:42:58;17.60;95.50
34646;DHT22;20857;47.808;12.482;2024-02-16T14:45:24;17.40;95.50
34646;DHT22;20857;47.808;12.482;2024-02-16T14:47:50;17.30;96.10
34646;DHT22;20857;47.808;12.482;2024-02-16T14:50:16;17.30;96.00
34646;DHT22;20857;47.808;12.482;2024-02-16T14:52:42;17.10;95.80
34646;DHT22;20857;47.808;12.482;2024-02-16T14:55:11;17.00;95.80
34646;DHT22;20857;47.808;12.482;2024-02-16T14:57:39;17.00;95.40
34646;DHT22;20857;47.808;12.482;2024-02-16T15:00:09;17.10;95.20
34646;DHT22;20857;47.808;12.482;2024-02-16T15:02:36;17.30;95.00
34646;DHT22;20857;47.808;12.482;2024-02-16T15:05:04;17.30;95.00
34646;DHT22;20857;47.808;12.482;2024-02-16T15:07:29;17.30;95.40
34646;DHT22;20857;47.808;12.482;2024-02-16T15:09:55;17.40;95.30
34646;DHT22;20857;47.808;12.482;2024-02-16T15:12:20;17.50;95.10
34646;DHT22;20857;47.808;12.482;2024-02-16T15:14:47;17.40;96.10
34646;DHT22;20857;47.808;12.482;2024-02-16T15:17:36;17.30;96.40
34646;DHT22;20857;47.808;12.482;2024-02-16T15:20:02;17.10;95.80